sensor_id;sensor_type;location;lat;lon;timestamp;pressure;altitude;pressure_sealevel;temperature;humidity
70758;BME280;59316;52.964;7.102;2023-09-19T00:00:56;59070.63;;;-143.20;0.00
70758;BME280;59316;52.964;7.102;2023-09-19T00:06:18;59070.63;;;-143.20;0.00
70758;BME280;59316;52.964;7.102;2023-09-19T00:11:39;59070.63;;;-143.20;0.00
70758;BME280;59316;52.964;7.102;2023-09-19T00:17:01;59070.63;;;-143.20;0.00
70758;BME280;59316;52.964;7.102;2023-09-19T00:22:23;59070.63;;;-143.20;0.00
70758;BME280;59316;52.964;7.102;2023-09-19T00:27:45;59070.63;;;-143.20;0.00
70758;BME280;59316;52.964;7.102;2023-09-19T00:33:06;59070.63;;;-143.20;0.00
70758;BME280;59316;52.964;7.102;2023-09-19T00:38:28;59070.63;;;-143.20;0.00
70758;BME280;59316;52.964;7.102;2023-09-19T00:43:49;59070.63;;;-143.20;0.00
70758;BME280;59316;52.964;7.102;2023-09-19T00:49:12;59070.63;;;-143.20;0.00
70758;BME280;59316;52.964;7.102;2023-09-19T00:54:36;59070.63;;;-143.20;0.00
70758;BME280;59316;52.964;7.102;2023-09-19T00:59:58;59070.63;;;-143.20;0.00
70758;BME280;59316;52.964;7.102;2023-09-19T01:05:21;59070.63;;;-143.20;0.00
70758;BME280;59316;52.964;7.102;2023-09-19T01:10:55;59070.63;;;-143.20;0.00
70758;BME280;59316;52.964;7.102;2023-09-19T01:22:13;59070.63;;;-143.20;0.00
70758;BME280;59316;52.964;7.102;2023-09-19T01:34:02;59070.63;;;-143.20;0.00
70758;BME280;59316;52.964;7.102;2023-09-19T01:39:23;59070.63;;;-143.20;0.00
70758;BME280;59316;52.964;7.102;2023-09-19T01:44:52;59070.63;;;-143.20;0.00
70758;BME280;59316;52.964;7.102;2023-09-19T01:50:36;59070.63;;;-143.20;0.00
70758;BME280;59316;52.964;7.102;2023-09-19T01:56:23;59070.63;;;-143.20;0.00
70758;BME280;59316;52.964;7.102;2023-09-19T02:01:49;59070.63;;;-143.20;0.00
70758;BME280;59316;52.964;7.102;2023-09-19T02:07:12;59070.63;;;-143.20;0.00
70758;BME280;59316;52.964;7.102;2023-09-19T02:12:34;59070.63;;;-143.20;0.00
70758;BME280;59316;52.964;7.102;2023-09-19T02:17:56;59070.63;;;-143.20;0.00
70758;BME280;59316;52.964;7.102;2023-09-19T02:23:17;59070.63;;;-143.20;0.00
70758;BME280;59316;52.964;7.102;2023-09-19T02:28:40;59070.63;;;-143.20;0.00
70758;BME280;59316;52.964;7.102;2023-09-19T02:34:02;59070.63;;;-143.20;0.00
70758;BME280;59316;52.964;7.102;2023-09-19T02:39:23;59070.63;;;-143.20;0.00
70758;BME280;59316;52.964;7.102;2023-09-19T02:44:44;59070.63;;;-143.20;0.00
70758;BME280;59316;52.964;7.102;2023-09-19T02:50:06;59070.63;;;-143.20;0.00
70758;BME280;59316;52.964;7.102;2023-09-19T02:55:27;59070.63;;;-143.20;0.00
70758;BME280;59316;52.964;7.102;2023-09-19T03:00:49;59070.63;;;-143.20;0.00
70758;BME280;59316;52.964;7.102;2023-09-19T03:06:11;59070.63;;;-143.20;0.00
70758;BME280;59316;52.964;7.102;2023-09-19T03:11:33;59070.63;;;-143.20;0.00
70758;BME280;59316;52.964;7.102;2023-09-19T03:16:55;59070.63;;;-143.20;0.00
70758;BME280;59316;52.964;7.102;2023-09-19T03:22:16;59070.63;;;-143.20;0.00
70758;BME280;59316;52.964;7.102;2023-09-19T03:27:39;59070.63;;;-143.20;0.00
70758;BME280;59316;52.964;7.102;2023-09-19T03:33:01;59070.63;;;-143.20;0.00
70758;BME280;59316;52.964;7.102;2023-09-19T03:38:23;59070.63;;;-143.20;0.00
70758;BME280;59316;52.964;7.102;2023-09-19T03:43:44;59070.63;;;-143.20;0.00
70758;BME280;59316;52.964;7.102;2023-09-19T03:49:06;59070.63;;;-143.20;0.00
70758;BME280;59316;52.964;7.102;2023-09-19T03:54:28;59070.63;;;-143.20;0.00
70758;BME280;59316;52.964;7.102;2023-09-19T03:59:49;59070.63;;;-143.20;0.00
70758;BME280;59316;52.964;7.102;2023-09-19T04:05:10;59070.63;;;-143.20;0.00
70758;BME280;59316;52.964;7.102;2023-09-19T04:10:32;59070.63;;;-143.20;0.00
70758;BME280;59316;52.964;7.102;2023-09-19T04:15:53;59070.63;;;-143.20;0.00
70758;BME280;59316;52.964;7.102;2023-09-19T04:21:14;59070.63;;;-143.20;0.00
70758;BME280;59316;52.964;7.102;2023-09-19T04:26:36;59070.63;;;-143.20;0.00
70758;BME280;59316;52.964;7.102;2023-09-19T04:31:58;59070.63;;;-143.20;0.00
70758;BME280;59316;52.964;7.102;2023-09-19T04:37:19;59070.63;;;-143.20;0.00
70758;BME280;59316;52.964;7.102;2023-09-19T04:42:40;59070.63;;;-143.20;0.00
70758;BME280;59316;52.964;7.102;2023-09-19T04:48:03;59070.63;;;-143.20;0.00
70758;BME280;59316;52.964;7.102;2023-09-19T04:53:24;59070.63;;;-143.20;0.00
70758;BME280;59316;52.964;7.102;2023-09-19T04:58:45;59070.63;;;-143.20;0.00
70758;BME280;59316;52.964;7.102;2023-09-19T05:04:07;59070.63;;;-143.20;0.00
70758;BME280;59316;52.964;7.102;2023-09-19T05:09:28;59070.63;;;-143.20;0.00
70758;BME280;59316;52.964;7.102;2023-09-19T05:14:49;59070.63;;;-143.20;0.00
70758;BME280;59316;52.964;7.102;2023-09-19T05:20:11;59070.63;;;-143.20;0.00
70758;BME280;59316;52.964;7.102;2023-09-19T05:25:33;59070.63;;;-143.20;0.00
70758;BME280;59316;52.964;7.102;2023-09-19T05:30:55;59070.63;;;-143.20;0.00
70758;BME280;59316;52.964;7.102;2023-09-19T05:36:16;59070.63;;;-143.20;0.00
70758;BME280;59316;52.964;7.102;2023-09-19T05:41:38;59070.63;;;-143.20;0.00
70758;BME280;59316;52.964;7.102;2023-09-19T05:46:59;59070.63;;;-143.20;0.00
70758;BME280;59316;52.964;7.102;2023-09-19T05:52:20;59070.63;;;-143.20;0.00
70758;BME280;59316;52.964;7.102;2023-09-19T05:57:42;59070.63;;;-143.20;0.00
70758;BME280;59316;52.964;7.102;2023-09-19T06:03:03;59070.63;;;-143.20;0.00
70758;BME280;59316;52.964;7.102;2023-09-19T06:08:25;59070.63;;;-143.20;0.00
70758;BME280;59316;52.964;7.102;2023-09-19T06:13:46;59070.63;;;-143.20;0.00
70758;BME280;59316;52.964;7.102;2023-09-19T06:19:07;59070.63;;;-143.20;0.00
70758;BME280;59316;52.964;7.102;2023-09-19T06:24:28;59070.63;;;-143.20;0.00
70758;BME280;59316;52.964;7.102;2023-09-19T06:29:50;59070.63;;;-143.20;0.00
70758;BME280;59316;52.964;7.102;2023-09-19T06:35:12;59070.63;;;-143.20;0.00
70758;BME280;59316;52.964;7.102;2023-09-19T06:40:35;59070.63;;;-143.20;0.00
70758;BME280;59316;52.964;7.102;2023-09-19T06:45:56;59070.63;;;-143.20;0.00
70758;BME280;59316;52.964;7.102;2023-09-19T06:51:18;59070.63;;;25.67;0.00
70758;BME280;59316;52.964;7.102;2023-09-19T06:56:39;59070.63;;;-143.20;0.00
70758;BME280;59316;52.964;7.102;2023-09-19T07:02:01;59070.63;;;-143.20;0.00
70758;BME280;59316;52.964;7.102;2023-09-19T07:07:22;59070.63;;;36.24;0.00
70758;BME280;59316;52.964;7.102;2023-09-19T07:12:44;59070.63;;;25.67;0.00
70758;BME280;59316;52.964;7.102;2023-09-19T07:23:27;59070.63;;;25.67;0.00
70758;BME280;59316;52.964;7.102;2023-09-19T07:28:48;59070.63;;;194.85;0.00
70758;BME280;59316;52.964;7.102;2023-09-19T07:34:09;59070.63;;;25.67;0.00
70758;BME280;59316;52.964;7.102;2023-09-19T07:39:31;59070.63;;;67.94;0.00
70758;BME280;59316;52.964;7.102;2023-09-19T07:44:52;59070.63;;;-143.20;0.00
70758;BME280;59316;52.964;7.102;2023-09-19T07:55:37;59070.63;;;25.68;0.00
70758;BME280;59316;52.964;7.102;2023-09-19T08:01:06;59070.63;;;-143.20;0.00
70758;BME280;59316;52.964;7.102;2023-09-19T08:06:29;59070.63;;;-143.20;0.00
70758;BME280;59316;52.964;7.102;2023-09-19T08:11:50;59070.63;;;-143.20;0.00
70758;BME280;59316;52.964;7.102;2023-09-19T08:17:11;59070.63;;;-143.20;0.00
70758;BME280;59316;52.964;7.102;2023-09-19T08:22:33;59070.63;;;25.68;0.00
70758;BME280;59316;52.964;7.102;2023-09-19T08:27:55;59070.63;;;-143.20;0.00
70758;BME280;59316;52.964;7.102;2023-09-19T08:33:16;59070.63;;;-143.20;0.00
70758;BME280;59316;52.964;7.102;2023-09-19T08:38:38;59070.63;;;-143.20;0.00
70758;BME280;59316;52.964;7.102;2023-09-19T08:43:59;59070.63;;;25.67;0.00
70758;BME280;59316;52.964;7.102;2023-09-19T08:49:38;59070.63;;;-143.20;0.00
70758;BME280;59316;52.964;7.102;2023-09-19T08:55:13;59070.63;;;-143.20;0.00
70758;BME280;59316;52.964;7.102;2023-09-19T09:00:35;59070.63;;;25.67;0.00
70758;BME280;59316;52.964;7.102;2023-09-19T09:05:57;59070.63;;;25.67;0.00
70758;BME280;59316;52.964;7.102;2023-09-19T09:11:20;59070.63;;;25.67;0.00
70758;BME280;59316;52.964;7.102;2023-09-19T09:16:41;59070.63;;;-143.20;0.00
70758;BME280;59316;52.964;7.102;2023-09-19T09:22:10;59070.63;;;-143.20;0.00
70758;BME280;59316;52.964;7.102;2023-09-19T09:27:32;59070.63;;;-143.20;0.00
70758;BME280;59316;52.964;7.102;2023-09-19T09:33:08;59070.63;;;-143.20;0.00
70758;BME280;59316;52.964;7.102;2023-09-19T09:38:47;59070.63;;;25.67;0.00
70758;BME280;59316;52.964;7.102;2023-09-19T09:49:37;59070.63;;;25.67;0.00
70758;BME280;59316;52.964;7.102;2023-09-19T10:00:23;59070.63;;;-143.20;0.00
70758;BME280;59316;52.964;7.102;2023-09-19T10:05:45;59070.63;;;-143.20;0.00
70758;BME280;59316;52.964;7.102;2023-09-19T10:11:16;59070.63;;;-143.20;0.00
70758;BME280;59316;52.964;7.102;2023-09-19T10:22:11;59070.63;;;-143.20;0.00
70758;BME280;59316;52.964;7.102;2023-09-19T10:27:35;59070.63;;;-143.20;0.00
70758;BME280;59316;52.964;7.102;2023-09-19T10:33:02;59070.63;;;-143.20;0.00
70758;BME280;59316;52.964;7.102;2023-09-19T10:38:25;59070.63;;;-143.20;0.00
70758;BME280;59316;52.964;7.102;2023-09-19T10:43:48;59070.63;;;-143.20;0.00
70758;BME280;59316;52.964;7.102;2023-09-19T10:49:10;59070.63;;;-143.20;0.00
70758;BME280;59316;52.964;7.102;2023-09-19T11:00:08;59070.63;;;-143.20;0.00
70758;BME280;59316;52.964;7.102;2023-09-19T11:05:30;59070.63;;;-143.20;0.00
70758;BME280;59316;52.964;7.102;2023-09-19T11:10:52;59070.63;;;-143.20;0.00
70758;BME280;59316;52.964;7.102;2023-09-19T11:16:18;59070.63;;;-143.20;0.00
70758;BME280;59316;52.964;7.102;2023-09-19T11:21:39;59070.63;;;-143.20;0.00
70758;BME280;59316;52.964;7.102;2023-09-19T11:27:13;59070.63;;;-143.20;0.00
70758;BME280;59316;52.964;7.102;2023-09-19T11:33:16;59070.63;;;-143.20;0.00
70758;BME280;59316;52.964;7.102;2023-09-19T11:49:30;59070.63;;;-143.20;0.00
70758;BME280;59316;52.964;7.102;2023-09-19T11:54:56;59070.63;;;-143.20;0.00
70758;BME280;59316;52.964;7.102;2023-09-19T12:00:18;59070.63;;;-143.20;0.00
70758;BME280;59316;52.964;7.102;2023-09-19T12:05:40;59070.63;;;-143.20;0.00
70758;BME280;59316;52.964;7.102;2023-09-19T12:11:02;59070.63;;;-143.20;0.00
70758;BME280;59316;52.964;7.102;2023-09-19T12:16:23;59070.63;;;-143.20;0.00
70758;BME280;59316;52.964;7.102;2023-09-19T12:21:44;59070.63;;;-143.20;0.00
70758;BME280;59316;52.964;7.102;2023-09-19T12:27:11;59070.63;;;-143.20;0.00
70758;BME280;59316;52.964;7.102;2023-09-19T12:32:35;59070.63;;;-143.20;0.00
70758;BME280;59316;52.964;7.102;2023-09-19T12:37:57;59070.63;;;-143.20;0.00
70758;BME280;59316;52.964;7.102;2023-09-19T12:43:19;59070.63;;;-143.20;0.00
70758;BME280;59316;52.964;7.102;2023-09-19T12:48:40;59070.63;;;-143.20;0.00
70758;BME280;59316;52.964;7.102;2023-09-19T12:54:02;59070.63;;;-143.20;0.00
70758;BME280;59316;52.964;7.102;2023-09-19T12:59:29;59070.63;;;-143.20;0.00
70758;BME280;59316;52.964;7.102;2023-09-19T13:04:54;59070.63;;;-143.20;0.00
70758;BME280;59316;52.964;7.102;2023-09-19T13:10:16;59070.63;;;-143.20;0.00
70758;BME280;59316;52.964;7.102;2023-09-19T13:15:51;59070.63;;;-143.20;0.00
70758;BME280;59316;52.964;7.102;2023-09-19T13:21:14;59070.63;;;-143.20;0.00
70758;BME280;59316;52.964;7.102;2023-09-19T13:26:35;59070.63;;;-143.20;0.00
70758;BME280;59316;52.964;7.102;2023-09-19T13:37:17;59070.63;;;-143.20;0.00
70758;BME280;59316;52.964;7.102;2023-09-19T13:42:39;59070.63;;;-143.20;0.00
70758;BME280;59316;52.964;7.102;2023-09-19T13:48:02;59070.63;;;-143.20;0.00
70758;BME280;59316;52.964;7.102;2023-09-19T13:53:23;59070.63;;;-143.20;0.00
70758;BME280;59316;52.964;7.102;2023-09-19T13:58:44;59070.63;;;-143.20;0.00
70758;BME280;59316;52.964;7.102;2023-09-19T14:20:09;59070.63;;;-143.20;0.00
70758;BME280;59316;52.964;7.102;2023-09-19T14:25:34;59070.63;;;-143.20;0.00
70758;BME280;59316;52.964;7.102;2023-09-19T14:30:55;59070.63;;;-143.20;0.00
70758;BME280;59316;52.964;7.102;2023-09-19T14:36:17;59070.63;;;-143.20;0.00
70758;BME280;59316;52.964;7.102;2023-09-19T14:41:38;59070.63;;;-143.20;0.00
70758;BME280;59316;52.964;7.102;2023-09-19T14:52:20;59070.63;;;-143.20;0.00
70758;BME280;59316;52.964;7.102;2023-09-19T14:57:42;59070.63;;;-143.20;0.00
70758;BME280;59316;52.964;7.102;2023-09-19T15:03:04;59070.63;;;-143.20;0.00
70758;BME280;59316;52.964;7.102;2023-09-19T15:13:47;59070.63;;;-143.20;0.00
70758;BME280;59316;52.964;7.102;2023-09-19T15:19:11;59070.63;;;-143.20;0.00
70758;BME280;59316;52.964;7.102;2023-09-19T15:24:32;59070.63;;;-143.20;0.00
70758;BME280;59316;52.964;7.102;2023-09-19T15:35:15;59070.63;;;-143.20;0.00
70758;BME280;59316;52.964;7.102;2023-09-19T15:40:45;59070.63;;;-143.20;0.00
70758;BME280;59316;52.964;7.102;2023-09-19T15:46:07;59070.63;;;-143.20;0.00
70758;BME280;59316;52.964;7.102;2023-09-19T15:51:29;59070.63;;;-143.20;0.00
70758;BME280;59316;52.964;7.102;2023-09-19T16:02:11;59070.63;;;-143.20;0.00
70758;BME280;59316;52.964;7.102;2023-09-19T16:12:54;59070.63;;;25.67;0.00
70758;BME280;59316;52.964;7.102;2023-09-19T16:18:15;59070.63;;;25.67;0.00
70758;BME280;59316;52.964;7.102;2023-09-19T16:23:37;59070.63;;;-143.20;0.00
70758;BME280;59316;52.964;7.102;2023-09-19T16:28:58;59070.63;;;-143.20;0.00
70758;BME280;59316;52.964;7.102;2023-09-19T16:34:20;59070.63;;;-143.20;0.00
70758;BME280;59316;52.964;7.102;2023-09-19T16:39:41;59070.63;;;-143.20;0.00
70758;BME280;59316;52.964;7.102;2023-09-19T16:45:03;59070.63;;;-143.20;0.00
70758;BME280;59316;52.964;7.102;2023-09-19T16:50:24;59070.63;;;-143.20;0.00
70758;BME280;59316;52.964;7.102;2023-09-19T16:55:47;59070.63;;;-143.20;0.00
70758;BME280;59316;52.964;7.102;2023-09-19T17:01:09;59070.63;;;-143.20;0.00
70758;BME280;59316;52.964;7.102;2023-09-19T17:06:31;59070.63;;;-143.20;0.00
70758;BME280;59316;52.964;7.102;2023-09-19T17:17:14;59070.63;;;-143.20;0.00
70758;BME280;59316;52.964;7.102;2023-09-19T17:22:35;59070.63;;;-143.20;0.00
70758;BME280;59316;52.964;7.102;2023-09-19T17:27:56;59070.63;;;-143.20;0.00
70758;BME280;59316;52.964;7.102;2023-09-19T17:33:18;59070.63;;;-143.20;0.00
70758;BME280;59316;52.964;7.102;2023-09-19T17:38:44;59070.63;;;-143.20;0.00
70758;BME280;59316;52.964;7.102;2023-09-19T17:44:06;59070.63;;;-143.20;0.00
70758;BME280;59316;52.964;7.102;2023-09-19T17:49:28;59070.63;;;-143.20;0.00
70758;BME280;59316;52.964;7.102;2023-09-19T17:54:49;59070.63;;;-143.20;0.00
70758;BME280;59316;52.964;7.102;2023-09-19T18:00:11;59070.63;;;-143.20;0.00
70758;BME280;59316;52.964;7.102;2023-09-19T18:05:33;59070.63;;;-143.20;0.00
70758;BME280;59316;52.964;7.102;2023-09-19T18:10:54;59070.63;;;-143.20;0.00
70758;BME280;59316;52.964;7.102;2023-09-19T18:16:16;59070.63;;;-143.20;0.00
70758;BME280;59316;52.964;7.102;2023-09-19T18:21:41;59070.63;;;-143.20;0.00
70758;BME280;59316;52.964;7.102;2023-09-19T18:27:03;59070.63;;;25.67;0.00
70758;BME280;59316;52.964;7.102;2023-09-19T18:32:25;59070.63;;;-143.20;0.00
70758;BME280;59316;52.964;7.102;2023-09-19T18:37:46;59070.63;;;-143.20;0.00
70758;BME280;59316;52.964;7.102;2023-09-19T18:43:08;59070.63;;;-143.20;0.00
70758;BME280;59316;52.964;7.102;2023-09-19T18:48:29;59070.63;;;-143.20;0.00
70758;BME280;59316;52.964;7.102;2023-09-19T18:53:51;59070.63;;;25.67;0.00
70758;BME280;59316;52.964;7.102;2023-09-19T18:59:31;59070.63;;;25.67;0.00
70758;BME280;59316;52.964;7.102;2023-09-19T19:04:53;59070.63;;;-143.20;0.00
70758;BME280;59316;52.964;7.102;2023-09-19T19:10:14;59070.63;;;25.67;0.00
70758;BME280;59316;52.964;7.102;2023-09-19T19:15:35;59070.63;;;25.67;0.00
70758;BME280;59316;52.964;7.102;2023-09-19T19:21:03;59070.63;;;25.67;0.00
70758;BME280;59316;52.964;7.102;2023-09-19T19:26:26;59070.63;;;-143.20;0.00
70758;BME280;59316;52.964;7.102;2023-09-19T19:31:47;59070.63;;;-143.20;0.00
70758;BME280;59316;52.964;7.102;2023-09-19T19:37:09;59070.63;;;-143.20;0.00
70758;BME280;59316;52.964;7.102;2023-09-19T19:47:51;59070.63;;;-143.20;0.00
70758;BME280;59316;52.964;7.102;2023-09-19T19:58:34;59070.63;;;-143.20;0.00
70758;BME280;59316;52.964;7.102;2023-09-19T20:09:18;59070.63;;;46.80;0.00
70758;BME280;59316;52.964;7.102;2023-09-19T20:14:39;59070.63;;;30.95;0.00
70758;BME280;59316;52.964;7.102;2023-09-19T20:20:00;59070.63;;;36.24;0.00
70758;BME280;59316;52.964;7.102;2023-09-19T20:25:22;59070.63;;;46.80;0.00
70758;BME280;59316;52.964;7.102;2023-09-19T20:30:43;59070.63;;;46.80;0.00
70758;BME280;59316;52.964;7.102;2023-09-19T20:41:27;59070.63;;;46.80;0.00
70758;BME280;59316;52.964;7.102;2023-09-19T20:46:49;59070.63;;;46.80;0.00
70758;BME280;59316;52.964;7.102;2023-09-19T20:52:10;59070.63;;;36.24;0.00
70758;BME280;59316;52.964;7.102;2023-09-19T20:57:32;59070.63;;;25.67;0.00
70758;BME280;59316;52.964;7.102;2023-09-19T21:08:15;59070.63;;;46.80;0.00
70758;BME280;59316;52.964;7.102;2023-09-19T21:13:37;59070.63;;;46.80;0.00
70758;BME280;59316;52.964;7.102;2023-09-19T21:18:58;59070.63;;;46.80;0.00
70758;BME280;59316;52.964;7.102;2023-09-19T21:24:19;59070.63;;;-143.20;0.00
70758;BME280;59316;52.964;7.102;2023-09-19T21:29:40;59070.63;;;67.94;0.00
70758;BME280;59316;52.964;7.102;2023-09-19T21:40:23;59070.63;;;-143.20;0.00
70758;BME280;59316;52.964;7.102;2023-09-19T21:51:07;59070.63;;;25.67;0.00
70758;BME280;59316;52.964;7.102;2023-09-19T21:56:29;59070.63;;;46.80;0.00
70758;BME280;59316;52.964;7.102;2023-09-19T22:01:51;59070.63;;;25.67;0.00
70758;BME280;59316;52.964;7.102;2023-09-19T22:07:13;59070.63;;;25.67;0.00
70758;BME280;59316;52.964;7.102;2023-09-19T22:12:34;59070.63;;;46.80;0.00
70758;BME280;59316;52.964;7.102;2023-09-19T22:17:55;59070.63;;;36.24;0.00
70758;BME280;59316;52.964;7.102;2023-09-19T22:23:17;59070.63;;;-143.20;0.00
70758;BME280;59316;52.964;7.102;2023-09-19T22:28:39;59070.63;;;25.67;0.00
70758;BME280;59316;52.964;7.102;2023-09-19T22:34:02;59070.63;;;25.67;0.00
70758;BME280;59316;52.964;7.102;2023-09-19T22:39:23;59070.63;;;-143.20;0.00
70758;BME280;59316;52.964;7.102;2023-09-19T22:44:44;59070.63;;;25.67;0.00
70758;BME280;59316;52.964;7.102;2023-09-19T22:50:06;59070.63;;;25.67;0.00
70758;BME280;59316;52.964;7.102;2023-09-19T22:55:27;59070.63;;;25.67;0.00
70758;BME280;59316;52.964;7.102;2023-09-19T23:00:49;59070.63;;;25.67;0.00
70758;BME280;59316;52.964;7.102;2023-09-19T23:06:10;59070.63;;;25.67;0.00
70758;BME280;59316;52.964;7.102;2023-09-19T23:11:31;59070.63;;;-143.20;0.00
70758;BME280;59316;52.964;7.102;2023-09-19T23:16:52;59070.63;;;-143.20;0.00
70758;BME280;59316;52.964;7.102;2023-09-19T23:22:13;59070.63;;;-143.20;0.00
70758;BME280;59316;52.964;7.102;2023-09-19T23:27:35;59070.63;;;-143.20;0.00
70758;BME280;59316;52.964;7.102;2023-09-19T23:32:56;59070.63;;;-143.20;0.00
70758;BME280;59316;52.964;7.102;2023-09-19T23:38:18;59070.63;;;25.67;0.00
70758;BME280;59316;52.964;7.102;2023-09-19T23:43:40;59070.63;;;25.67;0.00
70758;BME280;59316;52.964;7.102;2023-09-19T23:54:23;59070.63;;;25.67;0.00
70758;BME280;59316;52.964;7.102;2023-09-19T23:59:44;59070.63;;;25.67;0.00
